sensor_id;sensor_type;location;lat;lon;timestamp;temperature;humidity
69634;DHT22;56860;51.144;16.954;2024-03-23T00:52:39;unavailable;unavailable
69634;DHT22;56860;51.144;16.954;2024-03-23T00:54:39;11.0;45.5
69634;DHT22;56860;51.144;16.954;2024-03-23T00:55:39;11.1;45.5
69634;DHT22;56860;51.144;16.954;2024-03-23T00:56:39;11.1;45.3
69634;DHT22;56860;51.144;16.954;2024-03-23T00:57:39;11.1;44.7
69634;DHT22;56860;51.144;16.954;2024-03-23T00:58:39;11.1;45.1
69634;DHT22;56860;51.144;16.954;2024-03-23T00:59:40;unavailable;unavailable
69634;DHT22;56860;51.144;16.954;2024-03-23T01:00:39;11.0;45.7
69634;DHT22;56860;51.144;16.954;2024-03-23T01:01:39;10.9;46.0
69634;DHT22;56860;51.144;16.954;2024-03-23T01:02:39;10.8;46.4
69634;DHT22;56860;51.144;16.954;2024-03-23T01:03:39;10.8;46.3
69634;DHT22;56860;51.144;16.954;2024-03-23T01:04:39;10.7;46.6
69634;DHT22;56860;51.144;16.954;2024-03-23T01:05:39;10.8;46.6
69634;DHT22;56860;51.144;16.954;2024-03-23T01:06:39;10.8;46.5
69634;DHT22;56860;51.144;16.954;2024-03-23T01:07:39;unavailable;unavailable
69634;DHT22;56860;51.144;16.954;2024-03-23T01:08:39;10.8;46.2
69634;DHT22;56860;51.144;16.954;2024-03-23T01:09:39;10.9;46.1
69634;DHT22;56860;51.144;16.954;2024-03-23T01:10:40;10.9;45.9
69634;DHT22;56860;51.144;16.954;2024-03-23T01:11:39;10.9;45.7
69634;DHT22;56860;51.144;16.954;2024-03-23T01:12:39;11.0;45.3
69634;DHT22;56860;51.144;16.954;2024-03-23T01:13:39;11.0;45.6
69634;DHT22;56860;51.144;16.954;2024-03-23T01:14:39;10.9;45.5
69634;DHT22;56860;51.144;16.954;2024-03-23T01:15:39;10.9;45.5
69634;DHT22;56860;51.144;16.954;2024-03-23T01:16:40;10.9;45.7
69634;DHT22;56860;51.144;16.954;2024-03-23T01:17:39;10.9;45.8
69634;DHT22;56860;51.144;16.954;2024-03-23T01:18:39;10.9;46.0
69634;DHT22;56860;51.144;16.954;2024-03-23T01:19:39;10.9;46.1
69634;DHT22;56860;51.144;16.954;2024-03-23T01:20:39;10.9;45.9
69634;DHT22;56860;51.144;16.954;2024-03-23T01:21:40;10.9;45.7
69634;DHT22;56860;51.144;16.954;2024-03-23T01:22:39;10.9;45.3
69634;DHT22;56860;51.144;16.954;2024-03-23T01:23:39;10.8;45.7
69634;DHT22;56860;51.144;16.954;2024-03-23T01:24:39;10.8;46.1
69634;DHT22;56860;51.144;16.954;2024-03-23T01:25:39;10.8;46.2
69634;DHT22;56860;51.144;16.954;2024-03-23T01:26:39;unavailable;unavailable
69634;DHT22;56860;51.144;16.954;2024-03-23T01:27:40;10.9;45.8
69634;DHT22;56860;51.144;16.954;2024-03-23T01:28:39;10.8;45.7
69634;DHT22;56860;51.144;16.954;2024-03-23T01:29:39;10.8;45.6
69634;DHT22;56860;51.144;16.954;2024-03-23T01:30:39;10.8;45.6
69634;DHT22;56860;51.144;16.954;2024-03-23T01:31:39;unavailable;unavailable
69634;DHT22;56860;51.144;16.954;2024-03-23T01:32:39;10.8;45.6
69634;DHT22;56860;51.144;16.954;2024-03-23T01:35:45;unavailable;unavailable
69634;DHT22;56860;51.144;16.954;2024-03-23T01:36:39;10.9;44.9
69634;DHT22;56860;51.144;16.954;2024-03-23T01:37:40;10.9;45.0
69634;DHT22;56860;51.144;16.954;2024-03-23T01:38:39;11.0;45.1
69634;DHT22;56860;51.144;16.954;2024-03-23T01:39:39;11.0;45.1
69634;DHT22;56860;51.144;16.954;2024-03-23T01:40:39;11.0;45.1
69634;DHT22;56860;51.144;16.954;2024-03-23T01:41:39;11.0;45.0
69634;DHT22;56860;51.144;16.954;2024-03-23T01:42:40;11.0;45.1
69634;DHT22;56860;51.144;16.954;2024-03-23T01:43:40;11.0;44.8
69634;DHT22;56860;51.144;16.954;2024-03-23T01:44:39;11.0;44.7
69634;DHT22;56860;51.144;16.954;2024-03-23T01:45:39;10.8;44.9
69634;DHT22;56860;51.144;16.954;2024-03-23T01:46:39;10.9;45.0
69634;DHT22;56860;51.144;16.954;2024-03-23T01:47:39;10.8;44.9
69634;DHT22;56860;51.144;16.954;2024-03-23T01:48:39;10.8;44.9
69634;DHT22;56860;51.144;16.954;2024-03-23T01:49:40;10.9;45.0
69634;DHT22;56860;51.144;16.954;2024-03-23T01:50:39;10.8;44.9
69634;DHT22;56860;51.144;16.954;2024-03-23T01:51:39;10.8;44.9
69634;DHT22;56860;51.144;16.954;2024-03-23T01:52:39;unavailable;unavailable
69634;DHT22;56860;51.144;16.954;2024-03-23T01:53:39;10.8;44.9
69634;DHT22;56860;51.144;16.954;2024-03-23T01:54:40;10.8;45.0
69634;DHT22;56860;51.144;16.954;2024-03-23T01:55:40;10.8;44.8
69634;DHT22;56860;51.144;16.954;2024-03-23T01:56:39;10.8;44.7
69634;DHT22;56860;51.144;16.954;2024-03-23T01:57:40;10.7;44.9
69634;DHT22;56860;51.144;16.954;2024-03-23T01:58:39;10.7;44.8
69634;DHT22;56860;51.144;16.954;2024-03-23T01:59:39;unavailable;unavailable
69634;DHT22;56860;51.144;16.954;2024-03-23T02:00:39;10.8;44.8
69634;DHT22;56860;51.144;16.954;2024-03-23T02:01:40;10.8;44.8
69634;DHT22;56860;51.144;16.954;2024-03-23T02:02:42;10.9;44.5
69634;DHT22;56860;51.144;16.954;2024-03-23T02:03:40;10.9;44.5
69634;DHT22;56860;51.144;16.954;2024-03-23T02:04:39;10.8;44.3
69634;DHT22;56860;51.144;16.954;2024-03-23T02:05:39;10.8;44.2
69634;DHT22;56860;51.144;16.954;2024-03-23T02:06:39;10.8;44.1
69634;DHT22;56860;51.144;16.954;2024-03-23T02:09:40;10.7;44.5
69634;DHT22;56860;51.144;16.954;2024-03-23T02:10:39;10.6;44.4
69634;DHT22;56860;51.144;16.954;2024-03-23T02:11:39;10.6;44.6
69634;DHT22;56860;51.144;16.954;2024-03-23T02:12:39;10.6;44.6
69634;DHT22;56860;51.144;16.954;2024-03-23T02:13:39;10.5;44.4
69634;DHT22;56860;51.144;16.954;2024-03-23T02:14:40;10.6;44.7
69634;DHT22;56860;51.144;16.954;2024-03-23T02:15:39;10.6;44.7
69634;DHT22;56860;51.144;16.954;2024-03-23T02:16:39;10.6;44.7
69634;DHT22;56860;51.144;16.954;2024-03-23T02:17:39;10.6;44.7
69634;DHT22;56860;51.144;16.954;2024-03-23T02:18:39;unavailable;unavailable
69634;DHT22;56860;51.144;16.954;2024-03-23T02:19:39;10.5;44.6
69634;DHT22;56860;51.144;16.954;2024-03-23T02:20:39;10.5;44.6
69634;DHT22;56860;51.144;16.954;2024-03-23T02:21:40;10.5;44.6
69634;DHT22;56860;51.144;16.954;2024-03-23T02:22:39;10.5;44.6
69634;DHT22;56860;51.144;16.954;2024-03-23T02:23:39;10.6;44.7
69634;DHT22;56860;51.144;16.954;2024-03-23T02:24:39;10.6;44.5
69634;DHT22;56860;51.144;16.954;2024-03-23T02:25:39;unavailable;unavailable
69634;DHT22;56860;51.144;16.954;2024-03-23T02:26:39;10.6;44.4
69634;DHT22;56860;51.144;16.954;2024-03-23T02:27:40;10.7;44.2
69634;DHT22;56860;51.144;16.954;2024-03-23T02:28:39;10.7;43.9
69634;DHT22;56860;51.144;16.954;2024-03-23T02:29:39;10.8;43.7
69634;DHT22;56860;51.144;16.954;2024-03-23T02:30:39;10.7;43.6
69634;DHT22;56860;51.144;16.954;2024-03-23T02:31:39;10.7;43.5
69634;DHT22;56860;51.144;16.954;2024-03-23T02:32:39;10.8;43.5
69634;DHT22;56860;51.144;16.954;2024-03-23T02:33:40;10.8;43.3
69634;DHT22;56860;51.144;16.954;2024-03-23T02:34:39;10.8;42.8
69634;DHT22;56860;51.144;16.954;2024-03-23T02:35:39;10.8;43.1
69634;DHT22;56860;51.144;16.954;2024-03-23T02:36:39;unavailable;unavailable
69634;DHT22;56860;51.144;16.954;2024-03-23T02:37:39;10.7;43.2
69634;DHT22;56860;51.144;16.954;2024-03-23T02:38:39;10.7;43.1
69634;DHT22;56860;51.144;16.954;2024-03-23T02:39:40;10.8;43.3
69634;DHT22;56860;51.144;16.954;2024-03-23T02:40:39;10.7;43.1
69634;DHT22;56860;51.144;16.954;2024-03-23T02:41:39;10.7;43.2
69634;DHT22;56860;51.144;16.954;2024-03-23T02:42:39;10.7;43.4
69634;DHT22;56860;51.144;16.954;2024-03-23T02:43:39;unavailable;unavailable
69634;DHT22;56860;51.144;16.954;2024-03-23T02:44:39;10.7;43.3
69634;DHT22;56860;51.144;16.954;2024-03-23T02:45:40;10.6;43.5
69634;DHT22;56860;51.144;16.954;2024-03-23T02:46:40;10.6;43.7
69634;DHT22;56860;51.144;16.954;2024-03-23T02:47:39;10.6;43.7
69634;DHT22;56860;51.144;16.954;2024-03-23T02:48:39;10.5;43.6
69634;DHT22;56860;51.144;16.954;2024-03-23T02:49:39;10.5;43.6
69634;DHT22;56860;51.144;16.954;2024-03-23T02:50:39;10.6;43.7
69634;DHT22;56860;51.144;16.954;2024-03-23T02:51:40;10.6;43.5
69634;DHT22;56860;51.144;16.954;2024-03-23T02:52:39;10.6;43.5
69634;DHT22;56860;51.144;16.954;2024-03-23T02:53:39;10.6;43.4
69634;DHT22;56860;51.144;16.954;2024-03-23T02:54:39;10.7;43.4
69634;DHT22;56860;51.144;16.954;2024-03-23T02:55:39;10.7;43.1
69634;DHT22;56860;51.144;16.954;2024-03-23T02:56:39;10.8;43.0
69634;DHT22;56860;51.144;16.954;2024-03-23T02:57:40;10.7;42.9
69634;DHT22;56860;51.144;16.954;2024-03-23T02:58:39;10.8;42.8
69634;DHT22;56860;51.144;16.954;2024-03-23T02:59:39;10.8;43.0
69634;DHT22;56860;51.144;16.954;2024-03-23T03:00:39;10.7;42.9
69634;DHT22;56860;51.144;16.954;2024-03-23T03:01:39;unavailable;unavailable
69634;DHT22;56860;51.144;16.954;2024-03-23T03:02:39;10.6;43.4
69634;DHT22;56860;51.144;16.954;2024-03-23T03:03:40;10.7;43.5
69634;DHT22;56860;51.144;16.954;2024-03-23T03:04:39;10.7;43.2
69634;DHT22;56860;51.144;16.954;2024-03-23T03:05:39;10.7;43.2
69634;DHT22;56860;51.144;16.954;2024-03-23T03:06:39;10.7;43.1
69634;DHT22;56860;51.144;16.954;2024-03-23T03:07:40;10.7;43.2
69634;DHT22;56860;51.144;16.954;2024-03-23T03:08:39;10.6;43.4
69634;DHT22;56860;51.144;16.954;2024-03-23T03:09:40;10.7;43.4
69634;DHT22;56860;51.144;16.954;2024-03-23T03:10:39;unavailable;unavailable
69634;DHT22;56860;51.144;16.954;2024-03-23T03:11:40;10.6;43.5
69634;DHT22;56860;51.144;16.954;2024-03-23T03:12:39;10.6;43.5
69634;DHT22;56860;51.144;16.954;2024-03-23T03:13:39;10.6;43.2
69634;DHT22;56860;51.144;16.954;2024-03-23T03:14:39;10.6;43.6
69634;DHT22;56860;51.144;16.954;2024-03-23T03:15:40;10.6;43.5
69634;DHT22;56860;51.144;16.954;2024-03-23T03:16:39;10.7;43.5
69634;DHT22;56860;51.144;16.954;2024-03-23T03:17:39;10.7;42.6
69634;DHT22;56860;51.144;16.954;2024-03-23T03:18:40;10.8;42.8
69634;DHT22;56860;51.144;16.954;2024-03-23T03:19:39;10.9;42.9
69634;DHT22;56860;51.144;16.954;2024-03-23T03:20:39;10.8;42.7
69634;DHT22;56860;51.144;16.954;2024-03-23T03:21:40;10.9;42.7
69634;DHT22;56860;51.144;16.954;2024-03-23T03:22:39;10.8;42.7
69634;DHT22;56860;51.144;16.954;2024-03-23T03:23:39;10.8;42.6
69634;DHT22;56860;51.144;16.954;2024-03-23T03:24:39;10.9;42.6
69634;DHT22;56860;51.144;16.954;2024-03-23T03:25:39;10.9;42.5
69634;DHT22;56860;51.144;16.954;2024-03-23T03:26:39;11.0;42.2
69634;DHT22;56860;51.144;16.954;2024-03-23T03:27:40;11.1;42.1
69634;DHT22;56860;51.144;16.954;2024-03-23T03:28:39;unavailable;unavailable
69634;DHT22;56860;51.144;16.954;2024-03-23T03:29:40;11.2;41.8
69634;DHT22;56860;51.144;16.954;2024-03-23T03:30:39;11.2;41.6
69634;DHT22;56860;51.144;16.954;2024-03-23T03:31:39;11.2;41.4
69634;DHT22;56860;51.144;16.954;2024-03-23T03:32:39;11.2;41.4
69634;DHT22;56860;51.144;16.954;2024-03-23T03:33:40;11.2;41.4
69634;DHT22;56860;51.144;16.954;2024-03-23T03:34:39;11.2;41.4
69634;DHT22;56860;51.144;16.954;2024-03-23T03:35:39;11.2;41.1
69634;DHT22;56860;51.144;16.954;2024-03-23T03:36:39;11.2;41.0
69634;DHT22;56860;51.144;16.954;2024-03-23T03:37:39;unavailable;unavailable
69634;DHT22;56860;51.144;16.954;2024-03-23T03:38:39;11.3;41.2
69634;DHT22;56860;51.144;16.954;2024-03-23T03:39:40;11.3;41.1
69634;DHT22;56860;51.144;16.954;2024-03-23T03:40:40;11.3;41.0
69634;DHT22;56860;51.144;16.954;2024-03-23T03:41:39;11.3;41.0
69634;DHT22;56860;51.144;16.954;2024-03-23T03:42:40;11.3;40.9
69634;DHT22;56860;51.144;16.954;2024-03-23T03:43:40;11.3;40.8
69634;DHT22;56860;51.144;16.954;2024-03-23T03:44:39;unavailable;unavailable
69634;DHT22;56860;51.144;16.954;2024-03-23T03:45:40;11.3;40.4
69634;DHT22;56860;51.144;16.954;2024-03-23T03:46:39;11.2;40.6
69634;DHT22;56860;51.144;16.954;2024-03-23T03:47:39;11.2;40.8
69634;DHT22;56860;51.144;16.954;2024-03-23T03:48:39;11.2;40.9
69634;DHT22;56860;51.144;16.954;2024-03-23T03:49:39;11.3;40.8
69634;DHT22;56860;51.144;16.954;2024-03-23T03:50:39;11.2;40.9
69634;DHT22;56860;51.144;16.954;2024-03-23T03:51:40;unavailable;unavailable
69634;DHT22;56860;51.144;16.954;2024-03-23T03:52:39;11.2;41.1
69634;DHT22;56860;51.144;16.954;2024-03-23T03:53:39;11.2;41.0
69634;DHT22;56860;51.144;16.954;2024-03-23T03:54:39;11.2;40.9
69634;DHT22;56860;51.144;16.954;2024-03-23T03:55:39;11.2;40.8
69634;DHT22;56860;51.144;16.954;2024-03-23T03:56:39;11.3;40.9
69634;DHT22;56860;51.144;16.954;2024-03-23T03:57:40;11.3;40.7
69634;DHT22;56860;51.144;16.954;2024-03-23T03:58:40;11.3;40.6
69634;DHT22;56860;51.144;16.954;2024-03-23T03:59:40;11.4;40.5
69634;DHT22;56860;51.144;16.954;2024-03-23T04:00:39;11.5;40.3
69634;DHT22;56860;51.144;16.954;2024-03-23T04:01:39;11.4;40.2
69634;DHT22;56860;51.144;16.954;2024-03-23T04:02:39;11.4;40.2
69634;DHT22;56860;51.144;16.954;2024-03-23T04:03:40;11.4;40.1
69634;DHT22;56860;51.144;16.954;2024-03-23T04:04:39;11.4;40.0
69634;DHT22;56860;51.144;16.954;2024-03-23T04:05:40;11.4;39.7
69634;DHT22;56860;51.144;16.954;2024-03-23T04:06:39;11.4;40.0
69634;DHT22;56860;51.144;16.954;2024-03-23T04:07:39;11.5;40.0
69634;DHT22;56860;51.144;16.954;2024-03-23T04:08:39;11.5;39.5
69634;DHT22;56860;51.144;16.954;2024-03-23T04:09:40;11.5;39.9
69634;DHT22;56860;51.144;16.954;2024-03-23T04:10:39;11.5;40.0
69634;DHT22;56860;51.144;16.954;2024-03-23T04:11:40;11.5;39.8
69634;DHT22;56860;51.144;16.954;2024-03-23T04:12:39;11.4;40.1
69634;DHT22;56860;51.144;16.954;2024-03-23T04:13:39;11.5;40.2
69634;DHT22;56860;51.144;16.954;2024-03-23T04:14:39;11.5;40.2
69634;DHT22;56860;51.144;16.954;2024-03-23T04:15:40;11.5;40.2
69634;DHT22;56860;51.144;16.954;2024-03-23T04:16:39;11.4;40.3
69634;DHT22;56860;51.144;16.954;2024-03-23T04:17:40;11.4;40.4
69634;DHT22;56860;51.144;16.954;2024-03-23T04:18:40;11.4;40.5
69634;DHT22;56860;51.144;16.954;2024-03-23T04:19:39;11.3;40.9
69634;DHT22;56860;51.144;16.954;2024-03-23T04:20:39;11.2;41.1
69634;DHT22;56860;51.144;16.954;2024-03-23T04:21:40;11.1;41.5
69634;DHT22;56860;51.144;16.954;2024-03-23T04:22:40;11.0;41.7
69634;DHT22;56860;51.144;16.954;2024-03-23T04:23:39;unavailable;unavailable
69634;DHT22;56860;51.144;16.954;2024-03-23T04:24:39;10.7;42.6
69634;DHT22;56860;51.144;16.954;2024-03-23T04:25:39;10.6;43.0
69634;DHT22;56860;51.144;16.954;2024-03-23T04:26:40;10.5;43.3
69634;DHT22;56860;51.144;16.954;2024-03-23T04:27:40;10.5;43.5
69634;DHT22;56860;51.144;16.954;2024-03-23T04:28:39;10.4;43.8
69634;DHT22;56860;51.144;16.954;2024-03-23T04:29:40;10.4;43.9
69634;DHT22;56860;51.144;16.954;2024-03-23T04:30:39;unavailable;unavailable
69634;DHT22;56860;51.144;16.954;2024-03-23T04:31:40;10.4;44.4
69634;DHT22;56860;51.144;16.954;2024-03-23T04:32:40;10.4;44.5
69634;DHT22;56860;51.144;16.954;2024-03-23T04:33:40;10.3;44.4
69634;DHT22;56860;51.144;16.954;2024-03-23T04:34:39;10.3;44.4
69634;DHT22;56860;51.144;16.954;2024-03-23T04:35:39;10.3;44.1
69634;DHT22;56860;51.144;16.954;2024-03-23T04:36:39;10.3;44.3
69634;DHT22;56860;51.144;16.954;2024-03-23T04:37:39;unavailable;unavailable
69634;DHT22;56860;51.144;16.954;2024-03-23T04:38:39;10.3;44.4
69634;DHT22;56860;51.144;16.954;2024-03-23T04:39:40;10.3;44.4
69634;DHT22;56860;51.144;16.954;2024-03-23T04:40:39;10.3;44.3
69634;DHT22;56860;51.144;16.954;2024-03-23T04:41:39;10.4;44.0
69634;DHT22;56860;51.144;16.954;2024-03-23T04:42:40;unavailable;unavailable
69634;DHT22;56860;51.144;16.954;2024-03-23T04:43:39;10.5;43.8
69634;DHT22;56860;51.144;16.954;2024-03-23T04:44:39;10.5;43.7
69634;DHT22;56860;51.144;16.954;2024-03-23T04:45:40;10.6;43.4
69634;DHT22;56860;51.144;16.954;2024-03-23T04:46:39;10.6;43.0
69634;DHT22;56860;51.144;16.954;2024-03-23T04:47:40;10.6;42.9
69634;DHT22;56860;51.144;16.954;2024-03-23T04:48:39;10.6;42.8
69634;DHT22;56860;51.144;16.954;2024-03-23T04:49:39;unavailable;unavailable
69634;DHT22;56860;51.144;16.954;2024-03-23T04:50:39;10.7;42.6
69634;DHT22;56860;51.144;16.954;2024-03-23T04:51:40;10.7;42.1
69634;DHT22;56860;51.144;16.954;2024-03-23T04:52:39;10.8;42.3
69634;DHT22;56860;51.144;16.954;2024-03-23T04:53:40;10.8;42.2
69634;DHT22;56860;51.144;16.954;2024-03-23T04:54:39;10.8;42.1
69634;DHT22;56860;51.144;16.954;2024-03-23T04:55:39;10.8;42.1
69634;DHT22;56860;51.144;16.954;2024-03-23T04:56:39;10.7;42.3
69634;DHT22;56860;51.144;16.954;2024-03-23T04:57:40;10.7;42.1
69634;DHT22;56860;51.144;16.954;2024-03-23T04:58:39;10.7;42.2
69634;DHT22;56860;51.144;16.954;2024-03-23T04:59:39;10.6;42.2
69634;DHT22;56860;51.144;16.954;2024-03-23T05:00:39;10.7;42.2
69634;DHT22;56860;51.144;16.954;2024-03-23T05:01:39;10.7;41.9
69634;DHT22;56860;51.144;16.954;2024-03-23T05:02:39;10.7;41.8
69634;DHT22;56860;51.144;16.954;2024-03-23T05:03:40;10.8;41.7
69634;DHT22;56860;51.144;16.954;2024-03-23T05:04:40;10.8;41.5
69634;DHT22;56860;51.144;16.954;2024-03-23T05:05:39;10.8;41.4
69634;DHT22;56860;51.144;16.954;2024-03-23T05:06:39;10.9;41.2
69634;DHT22;56860;51.144;16.954;2024-03-23T05:07:39;10.9;41.1
69634;DHT22;56860;51.144;16.954;2024-03-23T05:08:39;10.9;41.0
69634;DHT22;56860;51.144;16.954;2024-03-23T05:09:40;11.0;40.9
69634;DHT22;56860;51.144;16.954;2024-03-23T05:10:40;unavailable;unavailable
69634;DHT22;56860;51.144;16.954;2024-03-23T05:11:40;11.0;40.6
69634;DHT22;56860;51.144;16.954;2024-03-23T05:12:39;11.0;40.5
69634;DHT22;56860;51.144;16.954;2024-03-23T05:13:39;11.0;40.5
69634;DHT22;56860;51.144;16.954;2024-03-23T05:14:39;11.0;40.3
69634;DHT22;56860;51.144;16.954;2024-03-23T05:15:40;unavailable;unavailable
69634;DHT22;56860;51.144;16.954;2024-03-23T05:16:39;10.9;40.5
69634;DHT22;56860;51.144;16.954;2024-03-23T05:17:39;10.9;40.0
69634;DHT22;56860;51.144;16.954;2024-03-23T05:18:39;11.0;40.3
69634;DHT22;56860;51.144;16.954;2024-03-23T05:19:40;11.0;40.2
69634;DHT22;56860;51.144;16.954;2024-03-23T05:20:39;11.1;40.1
69634;DHT22;56860;51.144;16.954;2024-03-23T05:21:40;11.1;40.0
69634;DHT22;56860;51.144;16.954;2024-03-23T05:22:39;11.1;39.8
69634;DHT22;56860;51.144;16.954;2024-03-23T05:23:39;11.2;39.7
69634;DHT22;56860;51.144;16.954;2024-03-23T05:24:39;11.2;39.7
69634;DHT22;56860;51.144;16.954;2024-03-23T05:25:40;11.2;39.6
69634;DHT22;56860;51.144;16.954;2024-03-23T05:26:39;11.2;39.6
69634;DHT22;56860;51.144;16.954;2024-03-23T05:27:40;11.2;39.4
69634;DHT22;56860;51.144;16.954;2024-03-23T05:28:40;11.3;39.3
69634;DHT22;56860;51.144;16.954;2024-03-23T05:29:39;11.3;39.1
69634;DHT22;56860;51.144;16.954;2024-03-23T05:30:39;11.4;39.0
69634;DHT22;56860;51.144;16.954;2024-03-23T05:31:39;11.4;38.8
69634;DHT22;56860;51.144;16.954;2024-03-23T05:32:40;11.4;38.6
69634;DHT22;56860;51.144;16.954;2024-03-23T05:33:40;11.4;38.6
69634;DHT22;56860;51.144;16.954;2024-03-23T05:34:39;11.4;38.2
69634;DHT22;56860;51.144;16.954;2024-03-23T05:35:40;11.4;38.2
69634;DHT22;56860;51.144;16.954;2024-03-23T05:36:39;11.4;38.4
69634;DHT22;56860;51.144;16.954;2024-03-23T05:37:39;11.4;38.4
69634;DHT22;56860;51.144;16.954;2024-03-23T05:38:39;11.4;38.5
69634;DHT22;56860;51.144;16.954;2024-03-23T05:39:40;11.4;38.5
69634;DHT22;56860;51.144;16.954;2024-03-23T05:40:39;unavailable;unavailable
69634;DHT22;56860;51.144;16.954;2024-03-23T05:41:39;11.3;38.4
69634;DHT22;56860;51.144;16.954;2024-03-23T05:42:39;11.4;38.5
69634;DHT22;56860;51.144;16.954;2024-03-23T05:43:40;11.4;38.5
69634;DHT22;56860;51.144;16.954;2024-03-23T05:44:39;11.4;38.4
69634;DHT22;56860;51.144;16.954;2024-03-23T05:45:40;11.3;38.5
69634;DHT22;56860;51.144;16.954;2024-03-23T05:46:40;11.4;38.6
69634;DHT22;56860;51.144;16.954;2024-03-23T05:47:39;11.3;38.5
69634;DHT22;56860;51.144;16.954;2024-03-23T05:48:39;11.3;38.5
69634;DHT22;56860;51.144;16.954;2024-03-23T05:49:40;11.4;38.5
69634;DHT22;56860;51.144;16.954;2024-03-23T05:50:39;11.5;38.4
69634;DHT22;56860;51.144;16.954;2024-03-23T05:51:40;11.5;37.9
69634;DHT22;56860;51.144;16.954;2024-03-23T05:52:39;11.5;38.1
69634;DHT22;56860;51.144;16.954;2024-03-23T05:53:39;11.5;38.2
69634;DHT22;56860;51.144;16.954;2024-03-23T05:54:39;unavailable;unavailable
69634;DHT22;56860;51.144;16.954;2024-03-23T05:55:40;11.5;38.2
69634;DHT22;56860;51.144;16.954;2024-03-23T05:56:39;11.4;38.3
69634;DHT22;56860;51.144;16.954;2024-03-23T05:57:40;11.3;38.5
69634;DHT22;56860;51.144;16.954;2024-03-23T05:58:40;11.4;38.7
69634;DHT22;56860;51.144;16.954;2024-03-23T05:59:40;unavailable;unavailable
69634;DHT22;56860;51.144;16.954;2024-03-23T06:00:40;11.3;38.6
69634;DHT22;56860;51.144;16.954;2024-03-23T06:01:40;11.4;38.4
69634;DHT22;56860;51.144;16.954;2024-03-23T06:02:40;11.4;38.1
69634;DHT22;56860;51.144;16.954;2024-03-23T06:03:40;11.4;38.1
69634;DHT22;56860;51.144;16.954;2024-03-23T06:04:40;11.5;37.9
69634;DHT22;56860;51.144;16.954;2024-03-23T06:05:40;11.6;37.8
69634;DHT22;56860;51.144;16.954;2024-03-23T06:06:40;unavailable;unavailable
69634;DHT22;56860;51.144;16.954;2024-03-23T06:07:40;11.8;37.7
69634;DHT22;56860;51.144;16.954;2024-03-23T06:08:40;11.8;37.5
69634;DHT22;56860;51.144;16.954;2024-03-23T06:09:40;11.8;38.5
69634;DHT22;56860;51.144;16.954;2024-03-23T06:10:40;11.8;38.9
69634;DHT22;56860;51.144;16.954;2024-03-23T06:11:40;11.8;39.1
69634;DHT22;56860;51.144;16.954;2024-03-23T06:12:40;11.7;39.1
69634;DHT22;56860;51.144;16.954;2024-03-23T06:13:40;11.8;39.4
69634;DHT22;56860;51.144;16.954;2024-03-23T06:14:40;11.8;39.5
69634;DHT22;56860;51.144;16.954;2024-03-23T06:15:40;unavailable;unavailable
69634;DHT22;56860;51.144;16.954;2024-03-23T06:16:40;11.9;40.0
69634;DHT22;56860;51.144;16.954;2024-03-23T06:17:40;11.9;40.3
69634;DHT22;56860;51.144;16.954;2024-03-23T06:18:40;12.0;40.5
69634;DHT22;56860;51.144;16.954;2024-03-23T06:19:40;12.1;40.6
69634;DHT22;56860;51.144;16.954;2024-03-23T06:20:40;12.2;40.5
69634;DHT22;56860;51.144;16.954;2024-03-23T06:21:42;12.2;40.5
69634;DHT22;56860;51.144;16.954;2024-03-23T06:22:40;12.2;40.3
69634;DHT22;56860;51.144;16.954;2024-03-23T06:23:40;12.2;40.1
69634;DHT22;56860;51.144;16.954;2024-03-23T06:24:40;12.2;39.5
69634;DHT22;56860;51.144;16.954;2024-03-23T06:25:40;12.2;39.4
69634;DHT22;56860;51.144;16.954;2024-03-23T06:26:40;unavailable;unavailable
69634;DHT22;56860;51.144;16.954;2024-03-23T06:27:40;12.1;39.2
69634;DHT22;56860;51.144;16.954;2024-03-23T06:28:40;12.1;39.1
69634;DHT22;56860;51.144;16.954;2024-03-23T06:29:40;12.1;38.9
69634;DHT22;56860;51.144;16.954;2024-03-23T06:30:40;12.1;38.5
69634;DHT22;56860;51.144;16.954;2024-03-23T06:31:40;12.0;38.6
69634;DHT22;56860;51.144;16.954;2024-03-23T06:32:40;12.0;38.8
69634;DHT22;56860;51.144;16.954;2024-03-23T06:33:40;12.0;39.5
69634;DHT22;56860;51.144;16.954;2024-03-23T06:34:40;11.9;39.7
69634;DHT22;56860;51.144;16.954;2024-03-23T06:35:40;11.9;39.7
69634;DHT22;56860;51.144;16.954;2024-03-23T06:36:40;11.9;39.7
69634;DHT22;56860;51.144;16.954;2024-03-23T06:37:40;11.9;39.5
69634;DHT22;56860;51.144;16.954;2024-03-23T06:38:40;11.9;39.5
69634;DHT22;56860;51.144;16.954;2024-03-23T06:39:40;11.8;39.4
69634;DHT22;56860;51.144;16.954;2024-03-23T06:40:40;11.8;39.1
69634;DHT22;56860;51.144;16.954;2024-03-23T06:41:40;11.7;38.9
69634;DHT22;56860;51.144;16.954;2024-03-23T06:42:40;11.7;38.6
69634;DHT22;56860;51.144;16.954;2024-03-23T06:43:40;11.7;38.5
69634;DHT22;56860;51.144;16.954;2024-03-23T06:44:40;11.7;38.4
69634;DHT22;56860;51.144;16.954;2024-03-23T06:45:40;11.7;38.2
69634;DHT22;56860;51.144;16.954;2024-03-23T06:46:40;11.7;38.4
69634;DHT22;56860;51.144;16.954;2024-03-23T06:47:40;unavailable;unavailable
69634;DHT22;56860;51.144;16.954;2024-03-23T06:48:40;11.8;38.4
69634;DHT22;56860;51.144;16.954;2024-03-23T06:49:40;11.8;38.5
69634;DHT22;56860;51.144;16.954;2024-03-23T06:50:40;11.8;38.6
69634;DHT22;56860;51.144;16.954;2024-03-23T06:51:40;11.8;38.2
69634;DHT22;56860;51.144;16.954;2024-03-23T06:52:40;11.9;38.3
69634;DHT22;56860;51.144;16.954;2024-03-23T06:53:40;11.9;37.5
69634;DHT22;56860;51.144;16.954;2024-03-23T06:54:40;12.0;37.3
69634;DHT22;56860;51.144;16.954;2024-03-23T06:55:40;12.1;37.0
69634;DHT22;56860;51.144;16.954;2024-03-23T06:56:40;12.2;36.8
69634;DHT22;56860;51.144;16.954;2024-03-23T06:57:40;12.2;36.9
69634;DHT22;56860;51.144;16.954;2024-03-23T06:58:40;12.2;36.9
69634;DHT22;56860;51.144;16.954;2024-03-23T06:59:40;12.2;36.9
69634;DHT22;56860;51.144;16.954;2024-03-23T07:00:40;12.2;36.4
69634;DHT22;56860;51.144;16.954;2024-03-23T07:01:40;12.1;36.7
69634;DHT22;56860;51.144;16.954;2024-03-23T07:02:40;12.1;36.8
69634;DHT22;56860;51.144;16.954;2024-03-23T07:03:40;12.0;36.5
69634;DHT22;56860;51.144;16.954;2024-03-23T07:04:40;11.9;36.4
69634;DHT22;56860;51.144;16.954;2024-03-23T07:05:40;11.9;36.5
69634;DHT22;56860;51.144;16.954;2024-03-23T07:06:42;11.9;36.5
69634;DHT22;56860;51.144;16.954;2024-03-23T07:07:40;12.0;36.4
69634;DHT22;56860;51.144;16.954;2024-03-23T07:08:40;12.2;36.3
69634;DHT22;56860;51.144;16.954;2024-03-23T07:09:40;unavailable;unavailable
69634;DHT22;56860;51.144;16.954;2024-03-23T07:10:40;12.3;35.2
69634;DHT22;56860;51.144;16.954;2024-03-23T07:11:40;12.3;35.4
69634;DHT22;56860;51.144;16.954;2024-03-23T07:12:40;12.4;35.6
69634;DHT22;56860;51.144;16.954;2024-03-23T07:13:40;12.5;35.7
69634;DHT22;56860;51.144;16.954;2024-03-23T07:14:40;12.6;35.7